Time;durP1;ratioP1;P1;durP2;ratioP2;P2;SDS_P1;SDS_P2;PMS_P1;PMS_P2;Temp;Humidity;BMP_temperature;BMP_pressure;BME280_temperature;BME280_humidity;BME280_pressure;Samples;Min_cycle;Max_cycle;Signal;HPM_P1;HPM_P2
2022/04/20 00:00:09;;;;;;;;;;;;;;;8.49;100.00;101682.44;2615864;36;20432;-51
2022/04/20 00:02:40;;;;;;;;;;;;;;;8.41;100.00;101691.81;2616237;54;20506;-55
2022/04/20 00:05:09;;;;;;;;;;;;;;;8.31;100.00;101693.41;2614400;36;20471;-49
2022/04/20 00:07:37;;;;;;;;;;;;;;;8.36;100.00;101690.41;2613523;36;20082;-47
2022/04/20 00:10:07;;;;;;;;;;;;;;;8.30;100.00;101691.66;2615899;36;19939;-54
2022/04/20 00:12:37;;;;;;;;;;;;;;;8.16;100.00;101687.22;2615820;36;20039;-50
2022/04/20 00:15:06;;;;;;;;;;;;;;;8.16;100.00;101694.41;2616509;31;20455;-50
2022/04/20 00:17:34;;;;;;;;;;;;;;;8.19;100.00;101688.84;2615899;36;19950;-48
2022/04/20 00:20:02;;;;;;;;;;;;;;;8.14;100.00;101694.53;2608784;36;19962;-48
2022/04/20 00:22:30;;;;;;;;;;;;;;;8.07;100.00;101693.19;2614299;36;20030;-50
2022/04/20 00:24:58;;;;;;;;;;;;;;;8.01;100.00;101702.50;2615582;31;19971;-51
2022/04/20 00:27:26;;;;;;;;;;;;;;;7.95;100.00;101689.47;2615708;36;19958;-50
2022/04/20 00:29:56;;;;;;;;;;;;;;;7.93;100.00;101695.91;2615937;36;19938;-51
2022/04/20 00:32:24;;;;;;;;;;;;;;;7.87;100.00;101697.16;2615231;36;20035;-51
2022/04/20 00:34:52;;;;;;;;;;;;;;;7.86;100.00;101706.13;2616030;36;19974;-50
2022/04/20 00:37:20;;;;;;;;;;;;;;;7.82;100.00;101704.63;2615408;31;20033;-47
2022/04/20 00:39:48;;;;;;;;;;;;;;;7.74;100.00;101701.56;2614926;36;19985;-52
2022/04/20 00:42:16;;;;;;;;;;;;;;;7.81;100.00;101700.22;2615604;36;20025;-49
2022/04/20 00:44:45;;;;;;;;;;;;;;;7.64;100.00;101710.19;2615648;36;20071;-51
2022/04/20 00:47:16;;;;;;;;;;;;;;;7.56;100.00;101696.41;2615404;36;19963;-49
2022/04/20 00:49:45;;;;;;;;;;;;;;;7.53;100.00;101693.91;2616344;31;20552;-53
2022/04/20 00:52:13;;;;;;;;;;;;;;;7.52;100.00;101692.19;2614970;36;20514;-51
2022/04/20 00:54:41;;;;;;;;;;;;;;;7.48;100.00;101690.66;2614954;36;20029;-49
2022/04/20 00:57:09;;;;;;;;;;;;;;;7.45;100.00;101698.88;2615388;36;20037;-49
2022/04/20 00:59:38;;;;;;;;;;;;;;;7.42;100.00;101693.72;2615461;31;20475;-48
2022/04/20 01:02:06;;;;;;;;;;;;;;;7.37;100.00;101696.69;2615013;36;20126;-50
2022/04/20 01:04:38;;;;;;;;;;;;;;;7.36;100.00;101697.63;2616149;36;20407;-49
2022/04/20 01:07:12;;;;;;;;;;;;;;;7.30;100.00;101695.34;2615592;36;20341;-52
2022/04/20 01:09:40;;;;;;;;;;;;;;;7.24;100.00;101699.25;2615958;36;20479;-52
2022/04/20 01:12:09;;;;;;;;;;;;;;;7.13;100.00;101691.88;2614544;36;20074;-56
2022/04/20 01:14:37;;;;;;;;;;;;;;;7.07;100.00;101697.59;2611948;36;20053;-54
2022/04/20 01:17:06;;;;;;;;;;;;;;;6.98;100.00;101701.69;2613373;36;20014;-50
2022/04/20 01:19:38;;;;;;;;;;;;;;;7.00;100.00;101694.44;2615565;36;20006;-54
2022/04/20 01:22:10;;;;;;;;;;;;;;;7.08;100.00;101693.09;2616049;31;20525;-53
2022/04/20 01:24:39;;;;;;;;;;;;;;;6.99;100.00;101700.75;2615238;36;19945;-50
2022/04/20 01:27:08;;;;;;;;;;;;;;;7.03;100.00;101696.06;2614971;36;20496;-52
2022/04/20 01:29:36;;;;;;;;;;;;;;;6.97;100.00;101697.28;2615061;36;20414;-52
2022/04/20 01:32:04;;;;;;;;;;;;;;;6.90;100.00;101700.44;2614903;36;19955;-49
2022/04/20 01:34:33;;;;;;;;;;;;;;;6.77;100.00;101701.19;2615764;36;20435;-52
2022/04/20 01:37:01;;;;;;;;;;;;;;;6.65;100.00;101701.88;2615424;36;19957;-53
2022/04/20 01:39:32;;;;;;;;;;;;;;;6.56;100.00;101707.78;2615663;36;20529;-52
2022/04/20 01:42:00;;;;;;;;;;;;;;;6.49;100.00;101702.78;2615353;36;20022;-48
2022/04/20 01:44:28;;;;;;;;;;;;;;;6.42;100.00;101705.88;2614438;36;20019;-51
2022/04/20 01:46:56;;;;;;;;;;;;;;;6.48;100.00;101700.19;2615280;36;19967;-50
2022/04/20 01:49:24;;;;;;;;;;;;;;;6.39;100.00;101700.72;2615448;36;19954;-50
2022/04/20 01:51:55;;;;;;;;;;;;;;;6.30;100.00;101697.63;2615027;31;20037;-52
2022/04/20 01:54:23;;;;;;;;;;;;;;;6.32;100.00;101711.75;2615146;36;19959;-50
2022/04/20 01:56:54;;;;;;;;;;;;;;;6.27;100.00;101707.63;2614975;36;19967;-51
2022/04/20 01:59:22;;;;;;;;;;;;;;;6.24;100.00;101705.13;2616820;36;19994;-49
2022/04/20 02:04:31;;;;;;;;;;;;;;;6.04;100.00;101703.59;2615854;36;20030;-48
2022/04/20 02:06:59;;;;;;;;;;;;;;;5.96;100.00;101704.84;2615293;36;20694;-52
2022/04/20 02:09:27;;;;;;;;;;;;;;;5.92;100.00;101711.31;2615313;36;19950;-52
2022/04/20 02:11:57;;;;;;;;;;;;;;;5.88;100.00;101701.72;2615524;36;20002;-50
2022/04/20 02:14:26;;;;;;;;;;;;;;;5.92;100.00;101702.44;2615938;31;20493;-51
2022/04/20 02:16:54;;;;;;;;;;;;;;;5.86;100.00;101706.31;2614192;36;20376;-49
2022/04/20 02:19:22;;;;;;;;;;;;;;;5.81;100.00;101710.19;2615113;36;20022;-51
2022/04/20 02:21:50;;;;;;;;;;;;;;;5.72;100.00;101707.06;2614039;31;20019;-52
2022/04/20 02:24:19;;;;;;;;;;;;;;;5.73;100.00;101710.59;2615292;36;19950;-47
2022/04/20 02:26:47;;;;;;;;;;;;;;;5.68;100.00;101704.63;2614891;36;19987;-47
2022/04/20 02:29:17;;;;;;;;;;;;;;;5.61;100.00;101704.97;2615429;36;20019;-51
2022/04/20 02:31:45;;;;;;;;;;;;;;;5.53;100.00;101707.19;2615587;31;20459;-50
2022/04/20 02:34:13;;;;;;;;;;;;;;;5.50;100.00;101707.34;2613566;36;19990;-50
2022/04/20 02:36:42;;;;;;;;;;;;;;;5.43;100.00;101706.84;2615454;36;20042;-52
2022/04/20 02:39:09;;;;;;;;;;;;;;;5.40;100.00;101706.13;2616208;36;20037;-53
2022/04/20 02:41:38;;;;;;;;;;;;;;;5.48;100.00;101705.69;2616297;36;20053;-46
2022/04/20 02:44:07;;;;;;;;;;;;;;;5.46;100.00;101705.78;2616353;36;19978;-46
2022/04/20 02:46:38;;;;;;;;;;;;;;;5.55;100.00;101707.97;2615402;36;20507;-54
2022/04/20 02:49:06;;;;;;;;;;;;;;;5.50;100.00;101707.34;2614602;36;19958;-47
2022/04/20 02:51:34;;;;;;;;;;;;;;;5.42;100.00;101709.59;2615639;36;19981;-49
2022/04/20 02:54:02;;;;;;;;;;;;;;;5.38;100.00;101708.03;2616410;36;19989;-50
2022/04/20 02:56:32;;;;;;;;;;;;;;;5.35;100.00;101717.03;2616122;36;20038;-50
2022/04/20 02:59:00;;;;;;;;;;;;;;;5.32;100.00;101713.69;2616867;31;20394;-53
2022/04/20 03:01:31;;;;;;;;;;;;;;;5.39;100.00;101720.44;2615910;36;20476;-53
2022/04/20 03:04:02;;;;;;;;;;;;;;;5.38;100.00;101719.56;2613415;31;19947;-53
2022/04/20 03:06:30;;;;;;;;;;;;;;;5.27;100.00;101719.28;2614002;36;20062;-50
2022/04/20 03:08:58;;;;;;;;;;;;;;;5.19;100.00;101722.31;2615360;36;20037;-48
2022/04/20 03:11:27;;;;;;;;;;;;;;;5.16;100.00;101725.16;2616046;36;20363;-49
2022/04/20 03:13:57;;;;;;;;;;;;;;;5.14;100.00;101729.72;2615160;31;19973;-49
2022/04/20 03:16:27;;;;;;;;;;;;;;;5.05;100.00;101719.50;2615296;36;19993;-48
2022/04/20 03:18:54;;;;;;;;;;;;;;;5.02;100.00;101727.66;2615473;36;19993;-50
2022/04/20 03:21:26;;;;;;;;;;;;;;;4.93;100.00;101728.16;2614635;36;20067;-47
2022/04/20 03:23:54;;;;;;;;;;;;;;;4.88;100.00;101734.56;2616500;36;19946;-51
2022/04/20 03:26:22;;;;;;;;;;;;;;;4.84;100.00;101734.81;2615732;36;20074;-51
2022/04/20 03:28:50;;;;;;;;;;;;;;;4.79;100.00;101739.53;2615560;36;19958;-50
2022/04/20 03:31:19;;;;;;;;;;;;;;;4.70;100.00;101738.19;2615444;36;20070;-51
2022/04/20 03:33:47;;;;;;;;;;;;;;;4.71;100.00;101734.56;2615592;36;19981;-48
2022/04/20 03:36:15;;;;;;;;;;;;;;;4.69;100.00;101739.09;2615627;31;20071;-49
2022/04/20 03:38:46;;;;;;;;;;;;;;;4.67;100.00;101738.34;2614833;36;19993;-50
2022/04/20 03:41:14;;;;;;;;;;;;;;;4.65;100.00;101737.53;2615826;36;20617;-47
2022/04/20 03:43:42;;;;;;;;;;;;;;;4.60;100.00;101737.75;2615851;36;19983;-51
2022/04/20 03:46:11;;;;;;;;;;;;;;;4.56;100.00;101739.72;2615279;36;20024;-48
2022/04/20 03:48:40;;;;;;;;;;;;;;;4.52;100.00;101743.47;2615392;31;20363;-50
2022/04/20 03:51:08;;;;;;;;;;;;;;;4.48;100.00;101733.91;2615830;36;20046;-51
2022/04/20 03:53:36;;;;;;;;;;;;;;;4.45;100.00;101738.53;2615150;36;19959;-50
2022/04/20 03:56:07;;;;;;;;;;;;;;;4.43;100.00;101740.38;2615467;36;20495;-49
2022/04/20 03:58:36;;;;;;;;;;;;;;;4.44;100.00;101736.78;2615209;36;20026;-49
2022/04/20 04:01:05;;;;;;;;;;;;;;;4.40;100.00;101741.41;2615428;31;19958;-51
2022/04/20 04:03:33;;;;;;;;;;;;;;;4.38;100.00;101748.63;2615716;31;19977;-50
2022/04/20 04:06:01;;;;;;;;;;;;;;;4.36;100.00;101745.16;2614569;36;20034;-49
2022/04/20 04:08:29;;;;;;;;;;;;;;;4.39;100.00;101747.69;2616275;31;19963;-52
2022/04/20 04:10:57;;;;;;;;;;;;;;;4.35;100.00;101748.75;2614338;36;19950;-54
2022/04/20 04:13:28;;;;;;;;;;;;;;;4.38;100.00;101749.47;2615905;31;19997;-52
2022/04/20 04:15:56;;;;;;;;;;;;;;;4.36;100.00;101750.50;2615368;36;19967;-46
2022/04/20 04:18:24;;;;;;;;;;;;;;;4.32;100.00;101754.25;2615552;36;19997;-48
2022/04/20 04:20:52;;;;;;;;;;;;;;;4.44;100.00;101758.97;2615376;36;20544;-51
2022/04/20 04:23:20;;;;;;;;;;;;;;;4.50;100.00;101757.81;2608191;36;20077;-52
2022/04/20 04:25:48;;;;;;;;;;;;;;;4.46;100.00;101753.56;2614647;36;20041;-50
2022/04/20 04:28:18;;;;;;;;;;;;;;;4.53;100.00;101747.88;2615729;36;20396;-48
2022/04/20 04:30:48;;;;;;;;;;;;;;;4.64;100.00;101755.34;2614453;36;20329;-51
2022/04/20 04:33:16;;;;;;;;;;;;;;;4.69;100.00;101753.28;2616078;36;19954;-47
2022/04/20 04:35:44;;;;;;;;;;;;;;;4.68;100.00;101756.03;2615077;36;20078;-47
2022/04/20 04:38:14;;;;;;;;;;;;;;;4.66;100.00;101757.94;2614773;36;20067;-49
2022/04/20 04:40:42;;;;;;;;;;;;;;;4.79;100.00;101752.88;2614941;36;19954;-48
2022/04/20 04:43:10;;;;;;;;;;;;;;;4.70;100.00;101759.50;2615473;31;20484;-51
2022/04/20 04:51:02;;;;;;;;;;;;;;;4.63;100.00;101763.41;2615376;36;20377;-49
2022/04/20 04:53:30;;;;;;;;;;;;;;;4.63;100.00;101761.59;2614552;36;20038;-50
2022/04/20 04:55:58;;;;;;;;;;;;;;;4.69;100.00;101760.44;2615182;36;19997;-50
2022/04/20 04:58:26;;;;;;;;;;;;;;;4.71;100.00;101759.44;2613022;36;20119;-49
2022/04/20 05:00:54;;;;;;;;;;;;;;;4.71;100.00;101758.56;2614701;36;20418;-51
2022/04/20 05:03:25;;;;;;;;;;;;;;;4.76;100.00;101769.88;2614080;31;20069;-50
2022/04/20 05:05:54;;;;;;;;;;;;;;;4.89;100.00;101770.97;2614998;36;20426;-54
2022/04/20 05:08:22;;;;;;;;;;;;;;;5.01;100.00;101765.97;2615006;36;20491;-55
2022/04/20 05:10:50;;;;;;;;;;;;;;;5.10;100.00;101770.84;2615030;31;19953;-51
2022/04/20 05:13:18;;;;;;;;;;;;;;;5.09;100.00;101769.09;2614511;31;20504;-52
2022/04/20 05:15:46;;;;;;;;;;;;;;;5.19;100.00;101773.03;2613345;36;19943;-52
2022/04/20 05:18:14;;;;;;;;;;;;;;;5.21;100.00;101776.50;2615390;36;19980;-47
2022/04/20 05:20:45;;;;;;;;;;;;;;;5.27;100.00;101772.66;2614812;31;20068;-50
2022/04/20 05:23:13;;;;;;;;;;;;;;;5.36;100.00;101773.97;2614697;31;19977;-51
2022/04/20 05:25:41;;;;;;;;;;;;;;;5.44;100.00;101775.28;2615150;36;20078;-49
2022/04/20 05:28:09;;;;;;;;;;;;;;;5.66;100.00;101775.97;2613514;36;19989;-50
2022/04/20 05:30:37;;;;;;;;;;;;;;;5.73;100.00;101774.72;2612710;36;20045;-50
2022/04/20 05:33:05;;;;;;;;;;;;;;;5.85;100.00;101775.84;2614421;36;19950;-50
2022/04/20 05:35:33;;;;;;;;;;;;;;;5.83;100.00;101781.28;2614503;36;20037;-52
2022/04/20 05:43:25;;;;;;;;;;;;;;;6.21;100.00;101785.50;2614890;36;20079;-53
2022/04/20 05:45:53;;;;;;;;;;;;;;;6.23;100.00;101787.16;2614269;36;20074;-52
2022/04/20 05:48:22;;;;;;;;;;;;;;;6.32;100.00;101791.13;2614371;36;20117;-48
2022/04/20 05:50:50;;;;;;;;;;;;;;;6.47;100.00;101782.22;2614683;36;20002;-51
2022/04/20 05:53:20;;;;;;;;;;;;;;;6.61;100.00;101780.56;2615026;36;20034;-49
2022/04/20 05:55:48;;;;;;;;;;;;;;;6.60;100.00;101790.41;2615113;36;20026;-52
2022/04/20 05:58:17;;;;;;;;;;;;;;;6.76;100.00;101781.53;2612090;36;20034;-52
2022/04/20 06:00:45;;;;;;;;;;;;;;;7.28;100.00;101786.47;2613106;36;20331;-53
2022/04/20 06:03:14;;;;;;;;;;;;;;;7.35;100.00;101781.63;2613396;36;19957;-51
2022/04/20 06:05:42;;;;;;;;;;;;;;;7.69;100.00;101782.25;2614753;36;19969;-49
2022/04/20 06:08:10;;;;;;;;;;;;;;;7.68;100.00;101773.31;2612309;36;20067;-49
2022/04/20 06:10:41;;;;;;;;;;;;;;;7.80;100.00;101782.44;2613143;36;19947;-49
2022/04/20 06:13:09;;;;;;;;;;;;;;;7.68;100.00;101777.84;2614820;36;20026;-54
2022/04/20 06:15:37;;;;;;;;;;;;;;;7.64;100.00;101776.28;2615309;36;19942;-52
2022/04/20 06:18:05;;;;;;;;;;;;;;;7.70;100.00;101779.47;2614686;36;20032;-55
2022/04/20 06:20:33;;;;;;;;;;;;;;;7.83;100.00;101776.00;2614816;36;20546;-49
2022/04/20 06:23:01;;;;;;;;;;;;;;;8.10;100.00;101775.22;2615519;36;20090;-47
2022/04/20 06:25:29;;;;;;;;;;;;;;;8.04;100.00;101772.00;2614541;36;21650;-49
2022/04/20 06:28:00;;;;;;;;;;;;;;;8.02;100.00;101771.25;2615181;36;19970;-51
2022/04/20 06:30:28;;;;;;;;;;;;;;;8.38;100.00;101772.50;2614618;36;19947;-55
2022/04/20 06:32:56;;;;;;;;;;;;;;;8.49;100.00;101768.31;2615061;36;19955;-49
2022/04/20 06:35:24;;;;;;;;;;;;;;;8.82;100.00;101775.06;2614696;36;20263;-52
2022/04/20 06:37:52;;;;;;;;;;;;;;;8.95;100.00;101767.94;2614486;36;19942;-52
2022/04/20 06:40:20;;;;;;;;;;;;;;;9.03;100.00;101768.28;2614608;36;19957;-52
2022/04/20 06:42:48;;;;;;;;;;;;;;;9.09;100.00;101770.53;2614785;36;20045;-49
2022/04/20 06:45:19;;;;;;;;;;;;;;;9.10;100.00;101768.75;2614956;36;20093;-50
2022/04/20 06:47:47;;;;;;;;;;;;;;;9.18;100.00;101776.28;2614763;36;20145;-50
2022/04/20 06:50:16;;;;;;;;;;;;;;;9.18;100.00;101771.75;2612586;36;20034;-48
2022/04/20 07:00:49;;;;;;;;;;;;;;;9.68;100.00;101757.59;2612515;36;20319;-56
2022/04/20 07:03:17;;;;;;;;;;;;;;;9.86;100.00;101764.34;2612323;36;20030;-53
2022/04/20 07:05:45;;;;;;;;;;;;;;;10.00;100.00;101763.38;2607129;31;19973;-53
2022/04/20 07:08:13;;;;;;;;;;;;;;;10.15;100.00;101767.63;2614505;31;19958;-56
2022/04/20 07:10:41;;;;;;;;;;;;;;;10.46;100.00;101760.06;2613400;31;20036;-53
2022/04/20 07:13:09;;;;;;;;;;;;;;;10.45;100.00;101762.84;2615634;31;19950;-51
2022/04/20 07:15:37;;;;;;;;;;;;;;;10.52;100.00;101756.91;2613938;36;19955;-52
2022/04/20 07:18:08;;;;;;;;;;;;;;;10.67;100.00;101768.38;2613744;31;20375;-54
2022/04/20 07:20:36;;;;;;;;;;;;;;;10.83;100.00;101764.53;2615209;36;19986;-51
2022/04/20 07:23:04;;;;;;;;;;;;;;;10.77;100.00;101768.53;2614077;36;20236;-51
2022/04/20 07:25:32;;;;;;;;;;;;;;;10.91;100.00;101777.41;2613348;36;20442;-53
2022/04/20 07:28:00;;;;;;;;;;;;;;;10.93;100.00;101780.88;2611327;36;20017;-53
2022/04/20 07:30:29;;;;;;;;;;;;;;;11.15;94.79;101778.25;2612923;36;20062;-49
2022/04/20 07:32:57;;;;;;;;;;;;;;;11.28;100.00;101771.91;2612500;36;19942;-52
2022/04/20 07:35:27;;;;;;;;;;;;;;;11.50;100.00;101788.16;2614067;36;20054;-53
2022/04/20 07:37:55;;;;;;;;;;;;;;;11.73;96.97;101789.06;2614405;36;20033;-54
2022/04/20 07:40:24;;;;;;;;;;;;;;;11.66;92.53;101778.84;2614007;36;20419;-56
2022/04/20 07:42:53;;;;;;;;;;;;;;;11.79;96.76;101776.03;2613672;36;20102;-55
2022/04/20 07:45:21;;;;;;;;;;;;;;;11.92;98.47;101783.06;2614237;31;20034;-51
2022/04/20 07:47:49;;;;;;;;;;;;;;;12.08;92.33;101792.63;2613007;36;19958;-53
2022/04/20 07:50:23;;;;;;;;;;;;;;;11.96;91.97;101791.78;2613133;36;20038;-53
2022/04/20 07:52:54;;;;;;;;;;;;;;;12.29;85.71;101786.50;2614414;36;20372;-56
2022/04/20 07:55:23;;;;;;;;;;;;;;;12.39;86.41;101795.56;2613406;36;20029;-55
2022/04/20 07:57:51;;;;;;;;;;;;;;;12.39;84.50;101790.16;2613780;36;19970;-54
2022/04/20 08:00:20;;;;;;;;;;;;;;;12.57;93.36;101794.06;2613569;36;19962;-54
2022/04/20 08:02:49;;;;;;;;;;;;;;;12.55;82.69;101790.63;2613938;36;19943;-54
2022/04/20 08:05:18;;;;;;;;;;;;;;;12.61;86.92;101784.69;2613211;36;19950;-53
2022/04/20 08:07:46;;;;;;;;;;;;;;;12.69;87.32;101788.63;2608012;31;20011;-53
2022/04/20 08:10:17;;;;;;;;;;;;;;;12.64;87.32;101789.00;2609163;36;20039;-52
2022/04/20 08:12:45;;;;;;;;;;;;;;;12.90;89.00;101792.25;2614844;36;19969;-55
2022/04/20 08:15:14;;;;;;;;;;;;;;;12.79;93.90;101797.66;2611646;36;19958;-50
2022/04/20 08:17:42;;;;;;;;;;;;;;;12.85;98.60;101797.16;2614697;36;20099;-53
2022/04/20 08:20:11;;;;;;;;;;;;;;;12.87;100.00;101806.00;2614280;36;19946;-51
2022/04/20 08:22:42;;;;;;;;;;;;;;;12.95;100.00;101798.09;2615229;36;20133;-55
2022/04/20 08:25:11;;;;;;;;;;;;;;;13.04;100.00;101796.47;2614754;36;19938;-53
2022/04/20 08:27:42;;;;;;;;;;;;;;;13.33;97.65;101796.69;2613932;36;20066;-53
2022/04/20 08:30:10;;;;;;;;;;;;;;;13.39;85.69;101789.09;2612781;36;19954;-51
2022/04/20 08:32:39;;;;;;;;;;;;;;;13.49;83.60;101800.84;2615262;36;19946;-56
2022/04/20 08:35:08;;;;;;;;;;;;;;;13.57;91.74;101798.31;2614912;36;20342;-55
2022/04/20 08:37:36;;;;;;;;;;;;;;;13.35;99.62;101795.75;2615009;36;20029;-49
2022/04/20 08:40:04;;;;;;;;;;;;;;;13.58;100.00;101793.78;2615003;36;19961;-52
2022/04/20 08:42:33;;;;;;;;;;;;;;;13.70;100.00;101797.28;2615116;36;20432;-56
2022/04/20 08:45:05;;;;;;;;;;;;;;;13.74;100.00;101793.31;2613099;36;20559;-50
2022/04/20 08:47:36;;;;;;;;;;;;;;;13.66;97.28;101794.84;2612480;31;20041;-51
2022/04/20 08:50:05;;;;;;;;;;;;;;;13.77;96.13;101796.59;2614710;36;19974;-50
2022/04/20 08:52:41;;;;;;;;;;;;;;;13.64;97.05;101793.25;2614251;36;19974;-55
2022/04/20 08:55:10;;;;;;;;;;;;;;;13.51;94.99;101787.19;2614753;31;19946;-48
2022/04/20 08:57:39;;;;;;;;;;;;;;;13.74;96.36;101790.59;2615194;36;20033;-54
2022/04/20 09:00:12;;;;;;;;;;;;;;;13.97;90.33;101785.84;2613968;31;19950;-52
2022/04/20 09:02:40;;;;;;;;;;;;;;;14.29;90.99;101788.41;2613323;36;19951;-50
2022/04/20 09:05:09;;;;;;;;;;;;;;;14.70;93.97;101786.53;2611799;36;19939;-52
2022/04/20 09:07:37;;;;;;;;;;;;;;;14.61;82.92;101778.38;2614379;36;20047;-55
2022/04/20 09:10:06;;;;;;;;;;;;;;;14.55;81.44;101783.34;2607140;36;20143;-56
2022/04/20 09:12:34;;;;;;;;;;;;;;;14.88;72.74;101783.13;2608398;36;19953;-55
2022/04/20 09:15:02;;;;;;;;;;;;;;;14.92;65.60;101781.84;2613684;36;20006;-52
2022/04/20 09:17:41;;;;;;;;;;;;;;;14.85;64.80;101767.16;2614466;36;19950;-53
2022/04/20 09:20:10;;;;;;;;;;;;;;;15.12;61.93;101757.44;2613196;36;20049;-54
2022/04/20 09:22:39;;;;;;;;;;;;;;;15.22;62.87;101761.88;2614690;36;19950;-54
2022/04/20 09:25:11;;;;;;;;;;;;;;;14.97;61.22;101759.72;2615334;36;20426;-55
2022/04/20 09:27:40;;;;;;;;;;;;;;;15.22;64.66;101761.00;2614174;31;19947;-53
2022/04/20 09:30:12;;;;;;;;;;;;;;;15.03;59.12;101768.16;2614309;36;20014;-55
2022/04/20 09:32:43;;;;;;;;;;;;;;;15.28;60.05;101760.41;2614121;36;20351;-52
2022/04/20 09:35:13;;;;;;;;;;;;;;;15.66;61.89;101766.75;2613633;36;20503;-54
2022/04/20 09:37:41;;;;;;;;;;;;;;;15.83;58.04;101761.63;2615319;36;19938;-54
2022/04/20 09:40:11;;;;;;;;;;;;;;;15.49;59.39;101753.94;2615377;36;20335;-53
2022/04/20 09:42:40;;;;;;;;;;;;;;;15.80;58.29;101748.31;2615396;36;19953;-53
2022/04/20 09:45:11;;;;;;;;;;;;;;;16.04;56.66;101756.78;2614474;36;20094;-55
2022/04/20 09:50:26;;;;;;;;;;;;;;;15.34;56.12;101740.88;2615036;36;19973;-56
2022/04/20 09:52:55;;;;;;;;;;;;;;;15.63;57.59;101745.34;2614875;36;20005;-52
2022/04/20 09:55:29;;;;;;;;;;;;;;;16.01;56.92;101742.69;2615836;36;19998;-54
2022/04/20 09:58:10;;;;;;;;;;;;;;;15.88;56.49;101748.44;2616248;36;20023;-53
2022/04/20 10:00:41;;;;;;;;;;;;;;;15.89;55.56;101744.72;2615238;36;19958;-59
2022/04/20 10:03:09;;;;;;;;;;;;;;;15.86;59.28;101737.72;2616351;31;19950;-55
2022/04/20 10:05:40;;;;;;;;;;;;;;;15.89;54.78;101736.59;2615384;36;20063;-55
2022/04/20 10:08:09;;;;;;;;;;;;;;;16.06;55.70;101734.91;2614775;36;19962;-56
2022/04/20 10:10:37;;;;;;;;;;;;;;;15.94;53.90;101726.13;2613695;36;19953;-57
2022/04/20 10:13:06;;;;;;;;;;;;;;;15.86;54.29;101728.75;2607788;36;20431;-57
2022/04/20 10:18:18;;;;;;;;;;;;;;;16.43;52.06;101732.13;2613979;36;19951;-50
2022/04/20 10:20:50;;;;;;;;;;;;;;;16.34;51.35;101727.63;2614481;36;20442;-56
2022/04/20 10:23:20;;;;;;;;;;;;;;;16.20;51.64;101725.44;2614033;31;19946;-52
2022/04/20 10:25:48;;;;;;;;;;;;;;;16.38;51.66;101717.31;2612900;36;20417;-55
2022/04/20 10:28:20;;;;;;;;;;;;;;;16.74;50.17;101712.75;2613300;36;20010;-52
2022/04/20 10:30:53;;;;;;;;;;;;;;;16.93;52.88;101717.19;2612723;36;20062;-53
2022/04/20 10:33:23;;;;;;;;;;;;;;;16.95;54.83;101708.88;2612493;36;20005;-56
2022/04/20 10:36:01;;;;;;;;;;;;;;;16.91;56.06;101712.91;2613035;36;19962;-49
2022/04/20 10:38:31;;;;;;;;;;;;;;;17.05;50.78;101701.47;2613920;36;19943;-52
2022/04/20 10:41:02;;;;;;;;;;;;;;;16.78;49.86;101714.16;2613296;36;19961;-54
2022/04/20 10:43:30;;;;;;;;;;;;;;;16.96;54.69;101706.00;2614527;31;19981;-53
2022/04/20 10:46:14;;;;;;;;;;;;;;;17.21;52.84;101702.59;2615025;36;20002;-53
2022/04/20 10:48:58;;;;;;;;;;;;;;;17.04;55.04;101702.47;2615008;36;19939;-53
2022/04/20 10:51:38;;;;;;;;;;;;;;;17.23;56.12;101698.72;2614351;36;19957;-52
2022/04/20 10:54:26;;;;;;;;;;;;;;;16.74;54.65;101690.13;2614486;36;20412;-53
2022/04/20 10:57:13;;;;;;;;;;;;;;;16.53;54.10;101687.72;2612765;36;20065;-50
2022/04/20 10:59:42;;;;;;;;;;;;;;;16.60;56.33;101683.38;2614090;36;19966;-55
2022/04/20 11:02:11;;;;;;;;;;;;;;;16.67;55.17;101684.47;2614247;36;19950;-53
2022/04/20 11:04:42;;;;;;;;;;;;;;;16.87;55.26;101676.13;2614509;36;20343;-54
2022/04/20 11:07:34;;;;;;;;;;;;;;;16.82;55.29;101677.44;2613388;36;19965;-54
2022/04/20 11:10:05;;;;;;;;;;;;;;;17.02;55.79;101680.03;2614080;36;19950;-53
2022/04/20 11:21:12;;;;;;;;;;;;;;;16.60;54.46;101657.03;2615193;31;19990;-54
2022/04/20 11:23:50;;;;;;;;;;;;;;;16.84;54.75;101657.41;2609479;36;20053;-55
2022/04/20 11:26:24;;;;;;;;;;;;;;;17.26;51.84;101662.19;2614994;31;19950;-52
2022/04/20 11:28:52;;;;;;;;;;;;;;;16.91;52.05;101659.38;2612680;31;20433;-55
2022/04/20 11:31:21;;;;;;;;;;;;;;;17.12;53.69;101660.88;2611032;36;19990;-53
2022/04/20 11:33:49;;;;;;;;;;;;;;;17.16;54.74;101652.22;2614416;36;20063;-53
2022/04/20 11:36:17;;;;;;;;;;;;;;;17.68;51.93;101655.91;2614295;36;19958;-51
2022/04/20 11:38:47;;;;;;;;;;;;;;;17.80;49.25;101648.31;2615183;31;20034;-53
2022/04/20 11:41:16;;;;;;;;;;;;;;;17.83;50.09;101643.41;2615290;36;20363;-57
2022/04/20 11:43:49;;;;;;;;;;;;;;;17.98;53.08;101642.81;2616609;31;20399;-56
2022/04/20 11:46:17;;;;;;;;;;;;;;;18.12;53.27;101636.69;2613304;36;19946;-50
2022/04/20 11:48:55;;;;;;;;;;;;;;;17.79;51.26;101630.28;2615268;36;20122;-52
2022/04/20 11:51:25;;;;;;;;;;;;;;;17.89;52.06;101630.13;2616028;36;19947;-55
2022/04/20 11:53:53;;;;;;;;;;;;;;;18.12;52.82;101623.06;2615779;36;19950;-52
2022/04/20 11:56:35;;;;;;;;;;;;;;;18.30;52.11;101627.53;2615057;31;19946;-56
2022/04/20 11:59:06;;;;;;;;;;;;;;;18.74;49.96;101624.47;2615667;36;19942;-55
2022/04/20 12:01:36;;;;;;;;;;;;;;;18.66;50.17;101625.34;2615209;36;19950;-55
2022/04/20 12:04:12;;;;;;;;;;;;;;;18.63;53.93;101627.56;2614389;31;19983;-55
2022/04/20 12:06:45;;;;;;;;;;;;;;;18.71;50.39;101619.38;2615861;36;20425;-54
2022/04/20 12:09:14;;;;;;;;;;;;;;;18.90;50.05;101627.25;2615749;31;20396;-53
2022/04/20 12:11:43;;;;;;;;;;;;;;;19.18;49.76;101618.63;2612561;36;19981;-56
2022/04/20 12:14:14;;;;;;;;;;;;;;;19.23;48.57;101618.97;2614639;36;19951;-54
2022/04/20 12:16:42;;;;;;;;;;;;;;;18.84;51.09;101608.78;2613749;36;20453;-52
2022/04/20 12:19:11;;;;;;;;;;;;;;;18.92;49.85;101616.16;2614040;36;19947;-55
2022/04/20 12:21:46;;;;;;;;;;;;;;;18.87;49.51;101602.16;2615324;36;19969;-53
2022/04/20 12:24:21;;;;;;;;;;;;;;;18.93;54.64;101611.53;2608693;36;20067;-55
2022/04/20 12:26:49;;;;;;;;;;;;;;;19.04;50.35;101606.56;2615813;36;19939;-53
2022/04/20 12:29:21;;;;;;;;;;;;;;;18.75;49.83;101607.09;2631280;36;20005;-56
2022/04/20 12:31:51;;;;;;;;;;;;;;;18.89;50.61;101600.97;2607204;36;19973;-57
2022/04/20 12:34:20;;;;;;;;;;;;;;;18.96;51.06;101600.28;2615198;36;19946;-55
2022/04/20 12:36:58;;;;;;;;;;;;;;;19.00;49.82;101593.47;2613775;31;19975;-55
2022/04/20 12:39:30;;;;;;;;;;;;;;;19.44;48.96;101598.44;2614083;36;20065;-53
2022/04/20 12:41:59;;;;;;;;;;;;;;;19.25;49.70;101600.53;2615311;36;20018;-57
2022/04/20 12:44:46;;;;;;;;;;;;;;;19.05;49.07;101597.38;2612675;36;19958;-54
2022/04/20 12:47:29;;;;;;;;;;;;;;;19.10;49.33;101591.38;2614100;36;20069;-54
2022/04/20 12:50:14;;;;;;;;;;;;;;;19.12;49.63;101578.41;2614219;31;20440;-56
2022/04/20 12:52:50;;;;;;;;;;;;;;;19.07;49.07;101583.56;2611979;36;19985;-58
2022/04/20 12:55:18;;;;;;;;;;;;;;;19.28;48.34;101584.84;2615252;36;20013;-54
2022/04/20 13:03:17;;;;;;;;;;;;;;;19.38;47.99;101578.16;2614674;36;20478;-56
2022/04/20 13:05:46;;;;;;;;;;;;;;;18.78;48.39;101573.19;2613975;36;19954;-54
2022/04/20 13:08:19;;;;;;;;;;;;;;;19.15;48.81;101578.06;2613103;31;19981;-53
2022/04/20 13:10:49;;;;;;;;;;;;;;;19.18;47.71;101572.25;2614983;36;19950;-54
2022/04/20 13:13:17;;;;;;;;;;;;;;;18.93;49.22;101562.44;2614359;36;19960;-56
2022/04/20 13:15:46;;;;;;;;;;;;;;;18.85;48.92;101560.56;2613481;36;21260;-53
2022/04/20 13:18:14;;;;;;;;;;;;;;;19.15;47.25;101558.97;2613306;31;20371;-54
2022/04/20 13:20:42;;;;;;;;;;;;;;;19.10;46.46;101557.81;2615366;36;20049;-53
2022/04/20 13:23:10;;;;;;;;;;;;;;;18.96;47.76;101543.00;2615224;31;20049;-52
2022/04/20 13:28:21;;;;;;;;;;;;;;;18.90;49.22;101547.25;2615088;36;20408;-53
2022/04/20 13:30:49;;;;;;;;;;;;;;;18.59;47.41;101552.59;2613985;36;19950;-53